Time,TemperatureF,DewpointF,PressureIn,WindDirection,WindDirectionDegrees,WindSpeedMPH,WindSpeedGustMPH,Humidity,HourlyPrecipIn,Conditions,Clouds,dailyrainin,SoftwareType,DateUTC
2013-08-01 00:13:00,80.0,80.0,30.08,NNE,16,1.0,2.0,100,0.00,,,0.01,,2013-08-01 04:13:00,
2013-08-01 00:33:00,79.0,79.0,30.07,NNE,17,2.0,3.0,100,0.00,,,0.01,,2013-08-01 04:33:00,
2013-08-01 00:52:00,79.0,79.0,30.07,NNE,29,2.0,4.0,100,0.00,,,0.01,,2013-08-01 04:52:00,
2013-08-01 01:23:00,79.0,79.0,30.06,NE,56,0.0,2.0,100,0.00,,,0.01,,2013-08-01 05:23:00,
2013-08-01 01:33:00,79.0,79.0,30.05,NE,56,1.0,2.0,100,0.00,,,0.01,,2013-08-01 05:33:00,
2013-08-01 01:43:00,79.0,79.0,30.04,NE,56,0.0,1.0,100,0.00,,,0.01,,2013-08-01 05:43:00,
2013-08-01 01:53:00,79.0,79.0,30.04,NE,53,0.0,1.0,100,0.00,,,0.01,,2013-08-01 05:53:00,
2013-08-01 02:23:00,79.0,79.0,30.03,NE,54,0.0,1.0,100,0.00,,,0.00,,2013-08-01 06:23:00,
2013-08-01 02:42:00,79.0,79.0,30.02,ENE,57,1.0,1.0,100,0.00,,,0.00,,2013-08-01 06:42:00,
2013-08-01 02:52:00,79.0,79.0,30.01,SSE,150,2.0,3.0,100,0.00,,,0.00,,2013-08-01 06:52:00,
2013-08-01 03:02:00,79.0,79.0,30.01,SE,124,1.0,2.0,100,0.00,,,0.00,,2013-08-01 07:02:00,
2013-08-01 03:32:00,78.0,78.0,30.01,ESE,114,1.0,2.0,100,0.00,,,0.00,,2013-08-01 07:32:00,
2013-08-01 03:43:00,78.0,78.0,30.00,ESE,114,0.0,0.0,100,0.00,,,0.00,,2013-08-01 07:43:00,
2013-08-01 03:53:00,78.0,78.0,30.00,ESE,114,1.0,1.0,100,0.00,,,0.00,,2013-08-01 07:53:00,
2013-08-01 04:06:00,78.0,78.0,30.00,ESE,109,0.0,1.0,100,0.00,,,0.00,,2013-08-01 08:06:00,
2013-08-01 04:16:00,78.0,78.0,30.00,ESE,109,0.0,0.0,100,0.00,,,0.00,,2013-08-01 08:16:00,
2013-08-01 04:26:00,78.0,78.0,29.99,East,98,0.0,1.0,100,0.00,,,0.00,,2013-08-01 08:26:00,
2013-08-01 04:46:00,78.0,78.0,29.98,East,98,0.0,0.0,100,0.00,,,0.00,,2013-08-01 08:46:00,
2013-08-01 05:17:00,78.0,78.0,29.98,East,96,0.0,1.0,100,0.00,,,0.00,,2013-08-01 09:17:00,
2013-08-01 05:22:00,78.0,78.0,29.99,East,96,0.0,0.0,100,0.00,,,0.00,,2013-08-01 09:22:00,
2013-08-01 05:51:00,78.0,78.0,30.00,East,96,0.0,0.0,100,0.00,,,0.00,,2013-08-01 09:51:00,
2013-08-01 05:59:00,77.0,77.0,30.00,East,96,0.0,0.0,100,0.00,,,0.00,,2013-08-01 09:59:00,
2013-08-01 07:00:00,77.0,77.0,30.01,East,96,0.0,0.0,100,0.00,,,0.00,,2013-08-01 11:00:00,
2013-08-01 07:43:00,77.0,77.0,30.02,East,96,1.0,2.0,100,0.00,,,0.00,,2013-08-01 11:43:00,
2013-08-01 08:20:00,79.0,79.0,30.03,East,97,0.0,1.0,100,0.00,,,0.00,,2013-08-01 12:20:00,
2013-08-01 09:07:00,80.0,80.0,30.04,East,100,2.0,3.0,100,0.00,,,0.00,,2013-08-01 13:07:00,
2013-08-01 09:20:00,81.0,81.0,30.04,ESE,115,4.0,5.0,100,0.00,,,0.00,,2013-08-01 13:20:00,
2013-08-01 21:28:00,82.0,82.0,29.99,WSW,252,0.0,0.0,100,0.00,,,0.00,,2013-08-02 01:28:00,
2013-08-01 21:38:00,82.0,82.0,29.99,WSW,252,0.0,0.0,100,0.00,,,0.00,,2013-08-02 01:38:00,
2013-08-01 21:47:00,82.0,82.0,29.99,WSW,252,0.0,0.0,100,0.00,,,0.00,,2013-08-02 01:47:00,
2013-08-01 21:56:00,82.0,82.0,29.99,WSW,252,0.0,0.0,100,0.00,,,0.00,,2013-08-02 01:56:00,
2013-08-01 22:08:00,82.0,82.0,30.01,WSW,252,1.0,2.0,100,0.00,,,0.00,,2013-08-02 02:08:00,
2013-08-01 22:17:00,82.0,82.0,30.01,WSW,252,1.0,2.0,100,0.00,,,0.00,,2013-08-02 02:17:00,
2013-08-01 22:35:00,81.0,81.0,30.02,ENE,62,2.0,4.0,100,0.00,,,0.00,,2013-08-02 02:35:00,
2013-08-01 22:45:00,81.0,81.0,30.02,ENE,62,2.0,4.0,100,0.00,,,0.00,,2013-08-02 02:45:00,
2013-08-01 22:54:00,81.0,81.0,30.02,ENE,62,2.0,4.0,100,0.00,,,0.00,,2013-08-02 02:54:00,
2013-08-01 23:38:00,79.0,79.0,30.01,NE,52,3.0,3.0,100,0.00,,,0.00,,2013-08-02 03:38:00,
2013-08-01 23:48:00,79.0,79.0,30.01,NE,52,3.0,3.0,100,0.00,,,0.00,,2013-08-02 03:48:00,